Time;durP1;ratioP1;P1;durP2;ratioP2;P2;SDS_P1;SDS_P2;PMS_P1;PMS_P2;Temp;Humidity;BMP_temperature;BMP_pressure;BME280_temperature;BME280_humidity;BME280_pressure;Samples;Min_cycle;Max_cycle;Signal;HPM_P1;HPM_P2
2022/11/05 00:17:07;;;;;;;30.47;27.20;;;9.00;99.90;;;;;;5115155;27;20275;-50
2022/11/05 00:19:37;;;;;;;77.47;38.07;;;9.00;99.90;;;;;;5115922;27;20282;-50
2022/11/05 00:27:36;;;;;;;63.50;33.67;;;9.10;99.90;;;;;;5123620;27;20291;-50
2022/11/05 00:30:05;;;;;;;521.10;177.33;;;9.10;99.90;;;;;;5122223;27;20315;-50
2022/11/05 00:32:34;;;;;;;201.37;95.27;;;9.10;99.90;;;;;;5122831;27;20260;-50
2022/11/05 00:35:03;;;;;;;70.93;27.03;;;9.00;99.90;;;;;;5112928;27;20299;-50
2022/11/05 00:37:32;;;;;;;31.90;27.80;;;9.00;99.90;;;;;;5125057;27;20306;-50
2022/11/05 00:40:00;;;;;;;43.27;34.93;;;9.00;99.90;;;;;;5113262;27;20229;-50
2022/11/05 00:45:14;;;;;;;35.77;27.23;;;9.00;99.90;;;;;;5118123;27;20223;-50
2022/11/05 00:50:29;;;;;;;179.93;70.13;;;8.90;99.90;;;;;;5120133;27;20254;-50
2022/11/05 00:52:59;;;;;;;70.83;33.90;;;9.00;99.90;;;;;;5122547;27;20636;-50
2022/11/05 00:55:33;;;;;;;221.33;94.40;;;9.00;99.90;;;;;;5115032;27;20672;-50
2022/11/05 00:58:03;;;;;;;104.37;47.53;;;9.00;99.90;;;;;;5126385;27;20664;-51
2022/11/05 01:00:33;;;;;;;49.47;31.90;;;9.00;99.90;;;;;;5118694;27;20313;-50
2022/11/05 01:03:02;;;;;;;702.73;245.47;;;9.00;99.90;;;;;;5115702;27;20331;-50
2022/11/05 01:05:33;;;;;;;154.80;55.90;;;9.00;99.90;;;;;;5118893;27;20813;-50
2022/11/05 01:08:01;;;;;;;113.07;50.43;;;8.90;99.90;;;;;;5119842;27;20572;-50
2022/11/05 01:10:30;;;;;;;143.77;56.87;;;9.00;99.90;;;;;;5117692;27;20226;-50
2022/11/05 01:12:58;;;;;;;145.57;52.37;;;8.90;99.90;;;;;;5117108;27;20664;-50
2022/11/05 01:15:26;;;;;;;76.20;31.00;;;8.90;99.90;;;;;;5125010;27;20633;-50
2022/11/05 01:17:54;;;;;;;43.57;38.17;;;8.90;99.90;;;;;;5119997;27;20567;-50
2022/11/05 01:20:23;;;;;;;57.17;42.90;;;8.90;99.90;;;;;;5126293;27;20306;-50
2022/11/05 01:22:52;;;;;;;157.27;62.83;;;8.80;99.90;;;;;;5119116;27;20223;-50
2022/11/05 01:25:21;;;;;;;240.20;102.60;;;8.90;99.90;;;;;;5119458;27;20235;-50
2022/11/05 01:27:49;;;;;;;74.50;37.40;;;8.80;99.90;;;;;;5126396;27;20217;-50
2022/11/05 01:30:17;;;;;;;94.43;48.70;;;8.90;99.90;;;;;;5120366;27;20219;-50
2022/11/05 01:32:45;;;;;;;303.40;112.83;;;8.80;99.90;;;;;;5117602;27;20208;-50
2022/11/05 01:35:17;;;;;;;38.70;31.13;;;8.80;99.90;;;;;;5113746;27;20204;-50
2022/11/05 01:37:45;;;;;;;85.97;48.47;;;8.80;99.90;;;;;;5126120;27;20286;-51
2022/11/05 01:40:18;;;;;;;308.17;105.57;;;8.80;99.90;;;;;;5113234;27;20307;-50
2022/11/05 01:42:46;;;;;;;370.80;137.93;;;8.80;99.90;;;;;;5120749;27;20734;-50
2022/11/05 01:45:18;;;;;;;142.73;64.63;;;8.80;99.90;;;;;;5112680;27;20242;-50
2022/11/05 01:48:04;;;;;;;295.50;121.13;;;8.90;99.90;;;;;;5124310;27;20707;-50
2022/11/05 01:50:46;;;;;;;48.87;33.67;;;8.80;99.90;;;;;;5117702;27;20231;-50
2022/11/05 01:53:23;;;;;;;177.77;71.87;;;8.80;99.90;;;;;;5127502;27;20199;-50
2022/11/05 01:55:57;;;;;;;138.77;54.50;;;8.80;99.90;;;;;;5124960;27;20213;-50
2022/11/05 01:58:30;;;;;;;294.17;140.10;;;8.80;99.90;;;;;;5125563;27;20233;-50
2022/11/05 02:00:58;;;;;;;141.57;65.73;;;8.80;99.90;;;;;;5122282;27;20651;-50
2022/11/05 02:03:28;;;;;;;377.90;132.03;;;8.80;99.90;;;;;;5128944;27;20301;-50
2022/11/05 02:05:58;;;;;;;196.20;91.37;;;8.80;99.90;;;;;;5128226;27;20286;-50
2022/11/05 02:08:41;;;;;;;61.27;24.00;;;8.80;99.90;;;;;;5131641;27;20640;-50
2022/11/05 02:11:13;;;;;;;153.07;68.37;;;8.80;99.90;;;;;;5122063;27;20791;-50
2022/11/05 02:13:41;;;;;;;44.17;33.17;;;8.80;99.90;;;;;;5131048;27;20309;-51
2022/11/05 02:16:19;;;;;;;66.93;36.37;;;8.80;99.90;;;;;;5128704;27;20199;-50
2022/11/05 02:18:55;;;;;;;136.77;58.67;;;8.70;99.90;;;;;;5116675;27;20680;-50
2022/11/05 02:22:02;;;;;;;191.87;101.23;;;8.70;99.90;;;;;;5120673;27;20227;-50
2022/11/05 02:25:03;;;;;;;261.40;119.90;;;8.60;99.90;;;;;;5118739;27;20221;-50
2022/11/05 02:27:58;;;;;;;183.03;77.00;;;8.60;99.90;;;;;;5133137;27;20302;-50
2022/11/05 02:30:38;;;;;;;84.20;43.57;;;8.50;99.90;;;;;;5123787;27;20300;-50
2022/11/05 02:33:16;;;;;;;40.73;35.13;;;8.50;99.90;;;;;;5118966;27;20249;-50
2022/11/05 02:36:22;;;;;;;227.33;79.90;;;8.40;99.90;;;;;;5120345;27;20293;-50
2022/11/05 02:38:59;;;;;;;39.20;25.93;;;8.30;99.90;;;;;;5122915;27;20706;-50
2022/11/05 02:41:33;;;;;;;27.87;24.90;;;8.20;99.90;;;;;;5116934;27;20219;-51
2022/11/05 02:44:12;;;;;;;31.13;27.87;;;8.20;99.90;;;;;;5123227;27;20330;-50
2022/11/05 02:46:51;;;;;;;34.00;30.00;;;8.10;99.90;;;;;;5127663;27;20234;-50
2022/11/05 02:49:31;;;;;;;37.63;28.10;;;8.10;99.90;;;;;;5116720;27;20239;-50
2022/11/05 02:52:06;;;;;;;121.10;69.30;;;8.00;99.90;;;;;;5124438;27;20293;-50
2022/11/05 02:54:38;;;;;;;33.03;28.73;;;8.00;99.90;;;;;;5124340;27;20261;-50
2022/11/05 02:57:07;;;;;;;179.60;64.00;;;7.90;99.90;;;;;;5129246;27;20209;-50
2022/11/05 02:59:35;;;;;;;133.20;55.37;;;7.90;99.90;;;;;;5116331;27;20663;-50
2022/11/05 03:02:05;;;;;;;79.53;36.30;;;7.90;99.90;;;;;;5119788;27;20753;-50
2022/11/05 03:04:34;;;;;;;55.57;41.03;;;7.90;99.90;;;;;;5119336;27;20233;-50
2022/11/05 03:07:21;;;;;;;101.33;56.67;;;7.90;99.90;;;;;;5114540;27;20305;-50
2022/11/05 03:10:22;;;;;;;28.30;25.03;;;7.90;99.90;;;;;;5125718;27;20256;-50
2022/11/05 03:13:03;;;;;;;87.80;42.13;;;7.90;99.90;;;;;;5126433;27;20206;-50
2022/11/05 03:15:56;;;;;;;34.60;31.10;;;7.90;99.90;;;;;;5127088;27;20245;-50
2022/11/05 03:18:36;;;;;;;305.43;127.83;;;8.00;99.90;;;;;;5122091;27;20238;-50
2022/11/05 03:21:10;;;;;;;94.30;37.47;;;8.00;99.90;;;;;;5121809;27;20250;-50
2022/11/05 03:23:44;;;;;;;76.00;37.00;;;8.00;99.90;;;;;;5116098;27;21010;-50
2022/11/05 03:26:18;;;;;;;35.33;29.43;;;8.00;99.90;;;;;;5127837;27;20199;-50
2022/11/05 03:28:50;;;;;;;85.87;37.93;;;8.00;99.90;;;;;;5110828;27;20242;-50
2022/11/05 03:31:20;;;;;;;78.07;45.10;;;8.00;99.90;;;;;;5119829;27;20675;-50
2022/11/05 03:33:52;;;;;;;36.10;29.73;;;8.00;99.90;;;;;;5114087;27;20755;-50
2022/11/05 03:36:23;;;;;;;38.87;30.17;;;8.00;99.90;;;;;;5126745;27;20230;-50
2022/11/05 03:38:54;;;;;;;72.53;36.27;;;8.00;99.90;;;;;;5115476;27;20204;-50
2022/11/05 03:41:24;;;;;;;100.77;46.53;;;8.00;99.90;;;;;;5121607;27;20258;-50
2022/11/05 03:43:57;;;;;;;86.73;50.33;;;8.00;99.90;;;;;;5113727;27;20227;-50
2022/11/05 03:46:30;;;;;;;220.47;87.43;;;8.00;99.90;;;;;;5127423;27;20210;-50
2022/11/05 03:49:03;;;;;;;44.37;29.87;;;8.00;99.90;;;;;;5117618;27;20286;-50
2022/11/05 03:51:39;;;;;;;505.53;176.87;;;8.00;99.90;;;;;;5119674;27;20218;-50
2022/11/05 03:54:08;;;;;;;77.33;45.10;;;7.90;99.90;;;;;;5128070;27;20239;-50
2022/11/05 03:56:40;;;;;;;240.47;79.23;;;7.90;99.90;;;;;;5129187;27;20298;-50
2022/11/05 03:59:10;;;;;;;352.00;86.07;;;7.90;99.90;;;;;;5125142;27;20227;-50
2022/11/05 04:01:39;;;;;;;129.10;49.07;;;7.80;99.90;;;;;;5117717;27;20302;-50
2022/11/05 04:04:09;;;;;;;56.07;24.87;;;7.70;99.90;;;;;;5122792;27;20251;-50
2022/11/05 04:14:55;;;;;;;791.27;156.97;;;7.60;99.90;;;;;;5121043;27;20205;-50
2022/11/05 04:17:22;;;;;;;113.10;54.30;;;7.60;99.90;;;;;;5119577;27;20277;-50
2022/11/05 04:25:23;;;;;;;75.33;38.03;;;7.50;99.90;;;;;;5120708;27;20258;-50
2022/11/05 04:27:51;;;;;;;43.13;26.50;;;7.50;99.90;;;;;;5116104;27;20239;-50
2022/11/05 04:30:19;;;;;;;27.77;22.60;;;7.40;99.90;;;;;;5115084;27;20624;-50
2022/11/05 04:33:02;;;;;;;29.37;25.67;;;7.30;99.90;;;;;;5119622;27;20202;-50
2022/11/05 04:35:34;;;;;;;59.03;32.53;;;7.30;99.90;;;;;;5125147;27;20213;-50
2022/11/05 04:38:03;;;;;;;37.03;32.37;;;7.20;99.90;;;;;;5119619;27;20227;-50
2022/11/05 04:40:32;;;;;;;26.63;22.33;;;7.10;99.90;;;;;;5117520;27;20282;-50
2022/11/05 04:43:00;;;;;;;25.20;19.80;;;7.00;99.90;;;;;;5115708;27;20237;-50
2022/11/05 04:45:30;;;;;;;65.73;36.73;;;7.00;99.90;;;;;;5121837;27;20230;-50
2022/11/05 04:47:58;;;;;;;138.47;59.10;;;7.00;99.90;;;;;;5118169;27;20222;-52
2022/11/05 04:50:27;;;;;;;30.23;26.57;;;6.90;99.90;;;;;;5125681;27;20750;-50
2022/11/05 04:52:56;;;;;;;52.87;28.80;;;6.80;99.90;;;;;;5124603;27;20238;-50
2022/11/05 04:55:25;;;;;;;84.97;36.50;;;6.80;99.90;;;;;;5121700;27;20203;-50
2022/11/05 04:57:54;;;;;;;47.13;21.80;;;6.80;99.90;;;;;;5112098;27;20310;-50
2022/11/05 05:00:23;;;;;;;33.47;29.87;;;6.70;99.90;;;;;;5119452;27;20306;-50
2022/11/05 05:02:52;;;;;;;34.00;27.17;;;6.70;99.90;;;;;;5120640;27;20201;-50
2022/11/05 05:05:21;;;;;;;32.07;25.40;;;6.60;99.90;;;;;;5120657;27;20226;-50
2022/11/05 05:07:50;;;;;;;32.03;24.30;;;6.60;99.90;;;;;;5123746;27;20210;-50
2022/11/05 05:10:19;;;;;;;24.40;20.97;;;6.60;99.90;;;;;;5126323;27;20318;-50
2022/11/05 05:12:47;;;;;;;36.93;31.90;;;6.50;99.90;;;;;;5121718;27;20249;-50
2022/11/05 05:15:15;;;;;;;40.43;33.97;;;6.40;99.90;;;;;;5113670;27;20233;-50
2022/11/05 05:17:44;;;;;;;248.97;99.20;;;6.40;99.90;;;;;;5121144;27;20244;-50
2022/11/05 05:22:57;;;;;;;404.97;127.20;;;6.30;99.90;;;;;;5123928;27;20255;-50
2022/11/05 05:25:26;;;;;;;82.67;50.50;;;6.20;99.90;;;;;;5118863;27;20764;-50
2022/11/05 05:27:57;;;;;;;22.90;20.53;;;6.20;99.90;;;;;;5118797;27;20687;-50
2022/11/05 05:30:25;;;;;;;44.07;34.20;;;6.20;99.90;;;;;;5119156;27;20279;-50
2022/11/05 05:32:53;;;;;;;72.23;39.43;;;6.20;99.90;;;;;;5121891;27;20292;-50
2022/11/05 05:35:22;;;;;;;51.07;40.00;;;6.20;99.90;;;;;;5122778;27;20279;-50
2022/11/05 05:37:55;;;;;;;101.57;44.87;;;6.10;99.90;;;;;;5136487;27;20205;-50
2022/11/05 05:40:23;;;;;;;44.07;36.67;;;6.10;99.90;;;;;;5128704;27;20306;-50
2022/11/05 05:42:55;;;;;;;37.83;29.67;;;6.00;99.90;;;;;;5118432;27;20238;-50
2022/11/05 05:45:23;;;;;;;39.10;31.87;;;6.00;99.90;;;;;;5129964;27;20298;-50
2022/11/05 05:47:51;;;;;;;50.90;33.80;;;6.00;99.90;;;;;;5131663;27;20714;-50
2022/11/05 05:50:19;;;;;;;38.23;26.13;;;5.90;99.90;;;;;;5119827;27;20241;-50
2022/11/05 05:52:47;;;;;;;26.23;19.53;;;5.80;99.90;;;;;;5134437;27;20238;-49
2022/11/05 05:55:16;;;;;;;37.80;26.80;;;5.70;99.90;;;;;;5133280;27;20231;-50
2022/11/05 05:57:44;;;;;;;103.50;49.83;;;5.70;99.90;;;;;;5143668;27;20329;-50
2022/11/05 06:00:14;;;;;;;235.23;76.50;;;5.70;99.90;;;;;;5135306;27;20222;-50
2022/11/05 06:02:42;;;;;;;288.07;75.70;;;5.60;99.90;;;;;;5134893;27;20642;-50
2022/11/05 06:05:11;;;;;;;38.03;28.57;;;5.60;99.90;;;;;;5135189;27;20587;-50
2022/11/05 06:07:39;;;;;;;41.53;23.73;;;5.60;99.90;;;;;;5139167;27;20229;-50
2022/11/05 06:10:07;;;;;;;333.77;89.10;;;5.50;99.90;;;;;;5142989;27;20318;-50
2022/11/05 06:12:36;;;;;;;39.27;32.93;;;5.50;99.90;;;;;;5139843;27;20286;-50
2022/11/05 06:15:04;;;;;;;42.27;33.13;;;5.50;99.90;;;;;;5142503;27;20202;-50
2022/11/05 06:17:34;;;;;;;51.70;39.93;;;5.50;99.90;;;;;;5142119;27;20207;-50
2022/11/05 06:20:03;;;;;;;59.77;39.50;;;5.40;99.90;;;;;;5141831;27;20724;-50
2022/11/05 06:22:31;;;;;;;48.77;34.70;;;5.40;99.90;;;;;;5133642;27;20233;-50
2022/11/05 06:24:59;;;;;;;80.30;52.90;;;5.40;99.90;;;;;;5132939;27;20240;-50
2022/11/05 06:27:28;;;;;;;58.87;44.77;;;5.30;99.90;;;;;;5135240;27;20207;-50
2022/11/05 06:29:56;;;;;;;38.73;29.40;;;5.30;99.90;;;;;;5140719;27;20253;-50
2022/11/05 06:32:25;;;;;;;87.67;51.67;;;5.30;99.90;;;;;;5137143;27;20680;-50
2022/11/05 06:34:54;;;;;;;138.30;48.27;;;5.20;99.90;;;;;;5139589;27;20676;-50
2022/11/05 06:37:22;;;;;;;42.33;30.33;;;5.20;99.90;;;;;;5128625;27;20218;-50
2022/11/05 06:39:50;;;;;;;35.20;28.07;;;5.20;99.90;;;;;;5126848;27;20326;-50
2022/11/05 06:42:19;;;;;;;40.53;33.73;;;5.10;99.90;;;;;;5129972;27;20207;-50
2022/11/05 06:44:47;;;;;;;29.10;20.13;;;5.10;99.90;;;;;;5130263;27;20229;-50
2022/11/05 06:47:15;;;;;;;28.87;21.47;;;5.10;99.90;;;;;;5125285;27;20207;-50
2022/11/05 06:49:43;;;;;;;71.70;44.63;;;5.10;99.90;;;;;;5128979;27;20300;-50
2022/11/05 06:52:14;;;;;;;302.30;87.90;;;5.10;99.90;;;;;;5128416;27;20203;-50
2022/11/05 06:54:43;;;;;;;157.37;63.50;;;5.00;99.90;;;;;;5134532;27;20242;-50
2022/11/05 06:57:12;;;;;;;47.23;39.70;;;5.00;99.90;;;;;;5137548;27;20191;-50
2022/11/05 06:59:40;;;;;;;85.13;40.80;;;5.00;99.90;;;;;;5142321;27;20194;-50
2022/11/05 07:02:11;;;;;;;58.97;43.23;;;5.10;99.90;;;;;;5134586;27;20633;-50
2022/11/05 07:04:39;;;;;;;109.50;50.03;;;5.30;99.90;;;;;;5142399;27;20202;-50
2022/11/05 07:07:08;;;;;;;531.63;134.67;;;5.40;99.90;;;;;;5121282;27;20227;-50
2022/11/05 07:09:39;;;;;;;167.90;65.23;;;5.50;99.90;;;;;;5130361;27;20242;-50
2022/11/05 07:12:08;;;;;;;121.67;51.27;;;5.60;99.90;;;;;;5121164;27;20238;-50
2022/11/05 07:14:36;;;;;;;165.90;69.87;;;5.60;99.90;;;;;;5120964;27;20287;-50
2022/11/05 07:17:04;;;;;;;39.50;25.73;;;5.60;99.90;;;;;;5109821;27;20200;-51
2022/11/05 07:19:32;;;;;;;46.73;26.83;;;5.60;99.90;;;;;;5129164;27;20299;-50
2022/11/05 07:22:00;;;;;;;47.90;37.90;;;5.70;99.90;;;;;;5126374;27;20240;-50
2022/11/05 07:24:28;;;;;;;79.27;36.77;;;5.60;99.90;;;;;;5123801;27;20238;-50
2022/11/05 07:26:58;;;;;;;32.73;28.93;;;5.70;99.90;;;;;;5116934;27;20231;-50
2022/11/05 07:29:26;;;;;;;61.30;36.83;;;5.70;99.90;;;;;;5113946;27;20304;-49
2022/11/05 07:31:54;;;;;;;33.17;25.63;;;5.70;99.90;;;;;;5119008;27;20214;-50
2022/11/05 07:34:22;;;;;;;55.60;34.70;;;5.70;99.90;;;;;;5116806;27;20269;-49
2022/11/05 07:36:50;;;;;;;141.00;71.53;;;5.70;99.90;;;;;;5124261;27;20218;-50
2022/11/05 07:39:18;;;;;;;28.97;24.83;;;5.80;99.90;;;;;;5124397;27;20662;-50
2022/11/05 07:41:47;;;;;;;53.47;31.00;;;5.80;99.90;;;;;;5119112;27;20906;-50
2022/11/05 07:44:16;;;;;;;34.73;30.23;;;5.80;99.90;;;;;;5114367;27;20294;-50
2022/11/05 07:46:44;;;;;;;102.90;48.00;;;5.80;99.90;;;;;;5122223;27;20323;-50
2022/11/05 07:49:12;;;;;;;42.83;30.50;;;5.90;99.90;;;;;;5117597;27;20238;-50
2022/11/05 07:51:40;;;;;;;31.43;22.97;;;5.90;99.90;;;;;;5122276;27;20337;-50
2022/11/05 07:54:09;;;;;;;79.80;41.40;;;5.90;99.90;;;;;;5123080;27;21075;-50
2022/11/05 07:56:37;;;;;;;44.20;24.73;;;5.90;99.90;;;;;;5128353;27;20209;-50
2022/11/05 07:59:05;;;;;;;41.30;26.97;;;5.90;99.90;;;;;;5127783;27;20203;-50
2022/11/05 08:01:35;;;;;;;52.77;21.90;;;5.90;99.90;;;;;;5133313;27;20779;-51
2022/11/05 08:04:04;;;;;;;130.63;63.00;;;6.00;99.90;;;;;;5133118;27;20214;-50
2022/11/05 08:06:32;;;;;;;74.37;39.50;;;6.00;99.90;;;;;;5123361;27;20249;-51
2022/11/05 08:09:00;;;;;;;48.23;30.57;;;6.10;99.90;;;;;;5113724;27;20235;-50
2022/11/05 08:11:28;;;;;;;74.10;41.70;;;6.10;99.90;;;;;;5131173;27;20232;-50
2022/11/05 08:13:56;;;;;;;40.63;29.60;;;6.20;99.90;;;;;;5135172;27;20207;-50
2022/11/05 08:16:25;;;;;;;29.90;22.73;;;6.20;99.90;;;;;;5126762;27;20205;-50
2022/11/05 08:18:54;;;;;;;27.30;18.80;;;6.30;99.90;;;;;;5124727;27;20233;-50
2022/11/05 08:21:22;;;;;;;87.40;46.90;;;6.40;99.90;;;;;;5124656;27;20276;-50
2022/11/05 08:23:51;;;;;;;32.67;26.10;;;6.50;99.90;;;;;;5123323;27;20289;-50
2022/11/05 08:26:19;;;;;;;92.53;39.90;;;6.60;99.90;;;;;;5117901;27;20793;-49
2022/11/05 08:28:47;;;;;;;77.10;35.83;;;6.60;99.90;;;;;;5123487;27;20229;-50
2022/11/05 08:31:16;;;;;;;125.70;41.70;;;6.60;99.90;;;;;;5128885;27;20269;-50
2022/11/05 08:33:45;;;;;;;23.70;19.43;;;6.70;99.90;;;;;;5128208;27;20208;-50
2022/11/05 08:36:14;;;;;;;72.70;39.03;;;6.80;99.90;;;;;;5125814;27;20271;-50
2022/11/05 08:38:43;;;;;;;21.03;19.07;;;6.80;99.90;;;;;;5126364;27;20263;-50
2022/11/05 08:41:11;;;;;;;95.97;35.10;;;6.70;99.90;;;;;;5124457;27;20735;-50
2022/11/05 08:43:39;;;;;;;74.83;35.77;;;6.70;99.90;;;;;;5121788;27;20302;-50
2022/11/05 08:46:07;;;;;;;151.37;45.27;;;6.70;99.90;;;;;;5128857;27;20238;-50
2022/11/05 08:48:35;;;;;;;36.97;26.93;;;6.80;99.90;;;;;;5120930;27;20246;-50
2022/11/05 08:51:03;;;;;;;30.53;22.10;;;6.90;99.90;;;;;;5122931;27;20305;-51
2022/11/05 08:53:33;;;;;;;100.73;42.27;;;6.90;99.90;;;;;;5124450;27;20202;-50
2022/11/05 08:56:01;;;;;;;134.33;48.93;;;6.90;99.90;;;;;;5119741;27;20210;-50
2022/11/05 08:58:29;;;;;;;59.67;20.63;;;7.00;99.90;;;;;;5122644;27;20743;-50
2022/11/05 09:00:57;;;;;;;125.07;58.33;;;7.00;99.90;;;;;;5133144;27;20236;-50
2022/11/05 09:03:32;;;;;;;202.13;81.13;;;7.00;99.90;;;;;;5132361;27;20284;-50
2022/11/05 09:06:00;;;;;;;161.40;64.20;;;7.10;99.90;;;;;;5131429;27;20289;-50
2022/11/05 09:08:28;;;;;;;110.23;45.83;;;7.10;99.90;;;;;;5132773;27;20229;-50
2022/11/05 09:10:57;;;;;;;194.27;58.07;;;7.20;99.90;;;;;;5134830;27;20265;-50
2022/11/05 09:13:26;;;;;;;37.63;29.33;;;7.20;99.90;;;;;;5131472;27;20298;-50
2022/11/05 09:15:54;;;;;;;227.23;84.50;;;7.30;99.90;;;;;;5131749;27;20252;-50
2022/11/05 09:18:23;;;;;;;130.70;54.43;;;7.40;99.90;;;;;;5122246;27;20288;-50
2022/11/05 09:20:51;;;;;;;44.87;23.53;;;7.30;99.90;;;;;;5123894;27;20222;-50
2022/11/05 09:23:19;;;;;;;36.27;29.27;;;7.40;99.90;;;;;;5131328;27;20290;-50
2022/11/05 09:25:47;;;;;;;200.47;61.17;;;7.40;99.90;;;;;;5125575;27;20466;-50
2022/11/05 09:28:19;;;;;;;144.67;36.03;;;7.50;99.90;;;;;;5126045;27;20783;-50
2022/11/05 09:30:49;;;;;;;279.70;81.40;;;7.60;99.90;;;;;;5120930;27;20814;-50
2022/11/05 09:33:18;;;;;;;323.23;88.50;;;7.70;99.90;;;;;;5133211;27;20293;-50
2022/11/05 09:35:46;;;;;;;290.20;112.60;;;7.80;99.90;;;;;;5121902;27;20231;-50
2022/11/05 09:38:15;;;;;;;66.00;39.73;;;7.90;99.90;;;;;;5128579;27;20234;-50
2022/11/05 09:40:54;;;;;;;125.43;48.83;;;7.90;99.90;;;;;;5118534;27;20231;-50
2022/11/05 09:43:27;;;;;;;81.50;41.40;;;8.00;99.90;;;;;;5144236;27;20223;-50
2022/11/05 09:46:03;;;;;;;194.23;77.40;;;8.10;99.90;;;;;;5130973;27;20211;-50
2022/11/05 09:48:33;;;;;;;154.83;49.00;;;8.20;99.90;;;;;;5134688;27;20271;-50
2022/11/05 09:51:03;;;;;;;59.07;37.00;;;8.30;99.90;;;;;;5136196;27;20449;-50
2022/11/05 09:53:32;;;;;;;110.73;34.20;;;8.40;99.90;;;;;;5129107;27;20293;-50
2022/11/05 09:56:01;;;;;;;40.57;25.83;;;8.50;99.90;;;;;;5133579;27;20294;-51
2022/11/05 09:58:37;;;;;;;231.87;63.77;;;8.60;99.90;;;;;;5135232;27;20747;-50
2022/11/05 10:01:10;;;;;;;268.67;104.30;;;8.80;99.90;;;;;;5134365;27;20307;-50
2022/11/05 10:03:45;;;;;;;541.67;170.57;;;8.90;99.90;;;;;;5134331;27;20255;-50
2022/11/05 10:06:19;;;;;;;468.23;154.03;;;9.00;99.90;;;;;;5131370;27;20281;-50
2022/11/05 10:08:51;;;;;;;90.40;39.37;;;9.00;99.90;;;;;;5138340;27;20290;-50
2022/11/05 10:11:24;;;;;;;169.13;70.30;;;9.00;99.90;;;;;;5128415;27;20254;-50
2022/11/05 10:13:59;;;;;;;417.00;113.07;;;8.90;99.90;;;;;;5124804;27;20199;-51
2022/11/05 10:16:31;;;;;;;201.33;92.10;;;9.00;99.90;;;;;;5130083;27;20785;-49
2022/11/05 10:19:04;;;;;;;270.60;100.03;;;9.10;99.90;;;;;;5125982;27;20326;-52
2022/11/05 10:21:33;;;;;;;35.37;28.10;;;9.20;99.90;;;;;;5124056;27;20314;-50
2022/11/05 10:24:22;;;;;;;388.87;142.63;;;9.20;99.90;;;;;;5127833;27;20239;-51
2022/11/05 10:26:53;;;;;;;316.77;77.53;;;9.30;99.90;;;;;;5127529;27;20206;-49
2022/11/05 10:29:28;;;;;;;371.97;139.57;;;9.40;99.90;;;;;;5125624;27;20302;-50
2022/11/05 10:31:58;;;;;;;317.50;105.17;;;9.40;99.90;;;;;;5121702;27;20213;-51
2022/11/05 10:34:31;;;;;;;468.03;151.30;;;9.50;99.90;;;;;;5119890;27;20274;-51
2022/11/05 10:37:00;;;;;;;505.57;152.53;;;9.50;99.90;;;;;;5113523;27;20243;-52
2022/11/05 10:39:36;;;;;;;312.20;143.00;;;9.60;99.90;;;;;;5120300;27;20208;-52
2022/11/05 10:42:26;;;;;;;122.87;44.30;;;9.70;99.90;;;;;;5118748;27;20211;-51
2022/11/05 10:45:07;;;;;;;469.57;175.13;;;9.60;99.90;;;;;;5123374;27;20252;-53
2022/11/05 10:48:01;;;;;;;542.77;183.90;;;9.50;99.90;;;;;;5126208;27;20221;-51
2022/11/05 10:50:30;;;;;;;947.77;251.20;;;9.50;99.90;;;;;;5122315;27;20269;-51
2022/11/05 10:53:02;;;;;;;281.77;120.50;;;9.40;99.90;;;;;;5127442;27;20243;-51
2022/11/05 10:55:34;;;;;;;543.33;109.00;;;9.30;99.90;;;;;;5119271;27;20287;-52
2022/11/05 10:58:11;;;;;;;288.30;95.60;;;9.30;99.90;;;;;;5126647;27;20279;-51
2022/11/05 11:00:42;;;;;;;67.10;35.33;;;9.30;99.90;;;;;;5127479;27;20706;-51
2022/11/05 11:03:32;;;;;;;580.10;184.00;;;9.30;99.90;;;;;;5128824;27;20738;-51
2022/11/05 11:06:02;;;;;;;567.47;201.30;;;9.30;99.90;;;;;;5126679;27;20295;-51
2022/11/05 11:08:33;;;;;;;184.90;89.43;;;9.30;99.90;;;;;;5130829;27;20239;-50
2022/11/05 11:11:05;;;;;;;670.30;218.57;;;9.30;99.90;;;;;;5126155;27;20218;-50
2022/11/05 11:13:50;;;;;;;506.43;180.60;;;9.40;99.90;;;;;;5116843;27;20196;-50
2022/11/05 11:16:23;;;;;;;461.60;133.73;;;9.60;99.90;;;;;;5129223;27;20239;-52
2022/11/05 11:18:54;;;;;;;1282.47;318.60;;;9.80;99.90;;;;;;5124543;27;20195;-50
2022/11/05 11:21:23;;;;;;;865.63;247.23;;;9.80;99.90;;;;;;5135672;27;20312;-50
2022/11/05 11:23:56;;;;;;;1286.40;285.60;;;9.70;99.90;;;;;;5129194;27;20214;-51
2022/11/05 11:26:26;;;;;;;1422.47;340.07;;;9.70;99.90;;;;;;5130169;27;20275;-52
2022/11/05 11:28:58;;;;;;;1999.90;660.87;;;9.60;99.90;;;;;;5136187;27;20231;-50
2022/11/05 11:31:30;;;;;;;480.07;209.80;;;9.70;99.90;;;;;;5143039;27;20321;-52
2022/11/05 11:34:03;;;;;;;1232.03;445.93;;;9.70;99.90;;;;;;5139430;27;20203;-51
2022/11/05 11:36:38;;;;;;;924.77;237.97;;;9.80;99.90;;;;;;5140973;27;20267;-50
2022/11/05 11:39:07;;;;;;;541.00;208.80;;;9.90;99.90;;;;;;5137762;27;20754;-52
2022/11/05 11:41:40;;;;;;;960.70;267.67;;;9.90;99.90;;;;;;5135371;27;20258;-51
2022/11/05 11:44:16;;;;;;;1807.13;530.27;;;9.80;99.90;;;;;;5126464;27;20195;-51
2022/11/05 11:46:49;;;;;;;1143.60;327.03;;;9.70;99.90;;;;;;5122372;27;20234;-51
2022/11/05 11:49:32;;;;;;;306.97;91.20;;;9.70;99.90;;;;;;5120366;27;20704;-51
2022/11/05 11:52:03;;;;;;;430.20;166.90;;;9.60;99.90;;;;;;5124675;27;20290;-52
2022/11/05 11:54:33;;;;;;;967.37;203.80;;;9.60;99.90;;;;;;5126985;27;20294;-52
2022/11/05 11:57:02;;;;;;;655.57;150.33;;;9.70;99.90;;;;;;5121193;27;20287;-51
2022/11/05 11:59:31;;;;;;;1721.13;514.17;;;9.90;99.90;;;;;;5125543;27;20207;-52
2022/11/05 12:02:56;;;;;;;990.07;390.77;;;10.00;99.90;;;;;;5125614;27;20222;-51
2022/11/05 12:05:39;;;;;;;994.60;323.40;;;10.10;99.90;;;;;;5127873;27;20213;-52
2022/11/05 12:08:26;;;;;;;1342.47;395.87;;;10.10;99.90;;;;;;5128933;27;20643;-51
2022/11/05 12:11:02;;;;;;;1476.47;391.83;;;10.20;99.90;;;;;;5126151;27;20302;-51
2022/11/05 12:13:54;;;;;;;1990.70;572.53;;;10.30;99.90;;;;;;5115736;27;20747;-51
2022/11/05 12:16:58;;;;;;;962.07;354.70;;;10.30;99.90;;;;;;5117917;27;20265;-51
2022/11/05 12:19:45;;;;;;;1061.20;341.07;;;10.40;99.90;;;;;;5120052;27;20229;-50
2022/11/05 12:22:21;;;;;;;290.60;97.40;;;10.50;99.90;;;;;;5122172;27;20628;-51
2022/11/05 12:25:05;;;;;;;693.80;238.80;;;10.60;99.90;;;;;;5136812;27;20238;-52
2022/11/05 12:27:47;;;;;;;1378.57;461.37;;;10.70;99.90;;;;;;5133099;27;20285;-51
2022/11/05 12:30:17;;;;;;;743.10;277.80;;;10.80;99.90;;;;;;5128864;27;20215;-51
2022/11/05 12:33:12;;;;;;;1213.20;479.43;;;10.90;99.90;;;;;;5122078;27;20218;-51
2022/11/05 12:35:53;;;;;;;1496.87;652.47;;;11.10;99.90;;;;;;5116509;27;20203;-50
2022/11/05 12:38:39;;;;;;;1999.90;683.83;;;11.20;99.90;;;;;;5125443;27;20576;-51
2022/11/05 12:41:18;;;;;;;1646.10;443.30;;;11.40;99.90;;;;;;5130249;27;20301;-52
2022/11/05 12:43:58;;;;;;;1316.27;473.80;;;11.50;99.90;;;;;;5141487;27;20250;-51
2022/11/05 12:46:34;;;;;;;849.87;269.70;;;11.40;99.90;;;;;;5129253;27;20849;-51
2022/11/05 12:49:31;;;;;;;1417.90;627.30;;;11.50;99.90;;;;;;5137831;27;20721;-51
2022/11/05 12:52:19;;;;;;;1661.97;578.90;;;11.40;99.90;;;;;;5119256;27;20758;-51
2022/11/05 12:54:59;;;;;;;1486.27;520.90;;;11.40;99.90;;;;;;5120974;27;20203;-50
2022/11/05 12:57:31;;;;;;;1906.10;706.77;;;11.40;99.90;;;;;;5116898;27;20203;-51
2022/11/05 13:00:06;;;;;;;1522.07;535.90;;;11.40;99.90;;;;;;5124509;27;20727;-49
2022/11/05 13:02:40;;;;;;;972.23;415.37;;;11.40;99.90;;;;;;5133111;27;20208;-52
2022/11/05 13:05:14;;;;;;;1257.70;450.03;;;11.50;99.90;;;;;;5137314;27;20228;-51
2022/11/05 13:07:51;;;;;;;1053.10;362.27;;;11.50;99.90;;;;;;5130187;27;20745;-51
2022/11/05 13:10:28;;;;;;;1298.20;509.20;;;11.50;99.90;;;;;;5138620;27;20745;-50
2022/11/05 13:13:02;;;;;;;1395.40;593.07;;;11.60;99.90;;;;;;5131876;27;20289;-50
2022/11/05 13:15:35;;;;;;;1999.90;878.10;;;11.50;99.90;;;;;;5129202;27;20309;-52
2022/11/05 13:18:06;;;;;;;1215.30;471.20;;;11.60;99.90;;;;;;5127109;27;20613;-51
2022/11/05 13:20:37;;;;;;;1424.20;525.30;;;11.50;99.90;;;;;;5130658;27;20254;-52
2022/11/05 13:23:16;;;;;;;1453.03;647.57;;;11.50;99.90;;;;;;5124755;27;20767;-52
2022/11/05 13:25:50;;;;;;;1454.40;595.77;;;11.50;99.90;;;;;;5125763;27;20271;-51
2022/11/05 13:28:28;;;;;;;1131.00;496.07;;;11.50;99.90;;;;;;5120856;27;20298;-50
2022/11/05 13:31:00;;;;;;;1136.37;504.10;;;11.40;99.90;;;;;;5127521;28;20223;-51
2022/11/05 13:33:33;;;;;;;1244.03;539.83;;;11.30;99.90;;;;;;5121477;27;20578;-52
2022/11/05 13:39:02;;;;;;;565.47;243.97;;;11.00;99.90;;;;;;5127388;28;20203;-51